Time;durP1;ratioP1;P1;durP2;ratioP2;P2;SDS_P1;SDS_P2;PMS_P1;PMS_P2;Temp;Humidity;BMP_temperature;BMP_pressure;BME280_temperature;BME280_humidity;BME280_pressure;Samples;Min_cycle;Max_cycle;Signal;HPM_P1;HPM_P2
2023/11/18 00:00:49;;;;;;;6.57;4.13;;;179.80;2252.80;;;;;;5050835;28;20475;-59
2023/11/18 00:03:15;;;;;;;5.20;3.35;;;179.70;2252.80;;;;;;5050652;28;20068;-59
2023/11/18 00:05:40;;;;;;;5.22;3.55;;;179.80;2252.80;;;;;;5050989;28;20021;-59
2023/11/18 00:08:06;;;;;;;6.63;3.70;;;179.80;2252.80;;;;;;5050265;28;20041;-58
2023/11/18 00:10:32;;;;;;;5.72;3.97;;;179.80;2252.80;;;;;;5050464;28;20166;-59
2023/11/18 00:12:58;;;;;;;4.90;3.40;;;179.70;2252.80;;;;;;5050396;28;20100;-60
2023/11/18 00:15:23;;;;;;;22.25;11.38;;;179.70;2252.80;;;;;;5049905;28;20395;-59
2023/11/18 00:17:49;;;;;;;6.65;4.43;;;179.70;2252.80;;;;;;5052833;28;20029;-59
2023/11/18 00:20:16;;;;;;;8.18;5.00;;;179.70;2252.80;;;;;;5052316;28;20025;-59
2023/11/18 00:22:42;;;;;;;9.23;4.75;;;179.60;2252.80;;;;;;5052243;28;20021;-58
2023/11/18 00:25:08;;;;;;;5.15;3.58;;;179.60;2252.80;;;;;;5052251;28;20021;-60
2023/11/18 00:27:37;;;;;;;6.15;3.88;;;179.60;2252.80;;;;;;5052041;28;20037;-59
2023/11/18 00:30:13;;;;;;;6.90;5.05;;;179.60;2252.80;;;;;;5051898;28;20482;-59
2023/11/18 00:32:39;;;;;;;6.40;4.40;;;179.60;2252.80;;;;;;5051996;28;20527;-59
2023/11/18 00:35:06;;;;;;;7.18;3.88;;;179.60;2252.80;;;;;;5051813;28;20087;-58
2023/11/18 00:37:32;;;;;;;11.38;5.10;;;179.60;2252.80;;;;;;5052068;28;20040;-59
2023/11/18 00:39:59;;;;;;;7.93;4.60;;;179.60;2252.80;;;;;;5051871;28;20108;-59
2023/11/18 00:42:24;;;;;;;8.75;5.22;;;179.60;2252.80;;;;;;5051985;28;20028;-58
2023/11/18 00:44:50;;;;;;;5.75;3.67;;;179.60;2252.80;;;;;;5051775;28;20446;-58
2023/11/18 00:47:16;;;;;;;7.13;4.78;;;179.60;2252.80;;;;;;5052566;28;20411;-59
2023/11/18 00:49:42;;;;;;;4.93;3.55;;;179.60;2252.80;;;;;;5052798;28;20063;-59
2023/11/18 00:52:08;;;;;;;5.65;3.70;;;179.60;2252.80;;;;;;5051834;28;20112;-60
2023/11/18 00:54:35;;;;;;;11.32;7.82;;;179.60;2252.80;;;;;;5051356;28;20083;-62
2023/11/18 00:57:01;;;;;;;7.47;4.10;;;179.60;2252.80;;;;;;5051402;28;20029;-60
2023/11/18 00:59:26;;;;;;;7.20;3.38;;;179.50;2252.80;;;;;;5051443;28;20100;-60
2023/11/18 01:01:52;;;;;;;17.98;8.40;;;179.50;2252.80;;;;;;5051410;28;20511;-59
2023/11/18 01:04:19;;;;;;;5.75;3.40;;;179.50;2252.80;;;;;;5051532;28;20033;-58
2023/11/18 01:06:45;;;;;;;12.82;5.95;;;179.60;2252.80;;;;;;5051170;28;20033;-59
2023/11/18 01:09:12;;;;;;;5.25;3.30;;;179.60;2252.80;;;;;;5051322;28;20202;-58
2023/11/18 01:11:37;;;;;;;13.77;8.93;;;179.60;2252.80;;;;;;5051369;28;20028;-58
2023/11/18 01:14:03;;;;;;;6.40;4.10;;;179.50;2252.80;;;;;;5051262;28;20483;-59
2023/11/18 01:16:29;;;;;;;12.27;6.70;;;179.40;2252.80;;;;;;5051373;28;20733;-58
2023/11/18 01:18:55;;;;;;;12.43;5.35;;;179.40;2252.80;;;;;;5051032;28;20025;-59
2023/11/18 01:21:21;;;;;;;5.38;3.63;;;179.50;2252.80;;;;;;5051299;28;20028;-61
2023/11/18 01:23:48;;;;;;;6.28;4.20;;;179.50;2252.80;;;;;;5050832;28;20475;-58
2023/11/18 01:26:14;;;;;;;10.90;4.18;;;179.40;2252.80;;;;;;5050773;28;20379;-59
2023/11/18 01:28:42;;;;;;;6.07;3.75;;;179.30;2252.80;;;;;;5050926;28;20033;-59
2023/11/18 01:31:13;;;;;;;5.63;3.33;;;179.40;2252.80;;;;;;5050794;28;20502;-59
2023/11/18 01:33:40;;;;;;;5.47;3.03;;;179.40;2252.80;;;;;;5051276;28;20036;-59
2023/11/18 01:36:08;;;;;;;8.52;3.88;;;179.40;2252.80;;;;;;5050931;28;20031;-59
2023/11/18 01:38:34;;;;;;;4.70;2.78;;;179.40;2252.80;;;;;;5050703;28;20048;-58
2023/11/18 01:41:00;;;;;;;13.98;9.52;;;179.40;2252.80;;;;;;5050625;28;20471;-58
2023/11/18 01:43:26;;;;;;;6.13;3.72;;;179.40;2252.80;;;;;;5050560;28;20031;-59
2023/11/18 01:45:53;;;;;;;5.05;3.45;;;179.40;2252.80;;;;;;5050587;28;20096;-59
2023/11/18 01:48:22;;;;;;;4.20;3.22;;;179.30;2252.80;;;;;;5050834;28;20056;-59
2023/11/18 01:50:48;;;;;;;6.60;4.35;;;179.20;2252.80;;;;;;5050525;28;20029;-60
2023/11/18 01:53:14;;;;;;;6.78;3.83;;;179.20;2252.80;;;;;;5050486;28;20025;-59
2023/11/18 01:55:40;;;;;;;4.50;2.50;;;179.40;2252.80;;;;;;5050651;28;20025;-59
2023/11/18 01:58:10;;;;;;;5.00;2.92;;;179.30;2252.80;;;;;;5050586;28;20036;-58
2023/11/18 02:00:38;;;;;;;5.90;3.03;;;179.40;2252.80;;;;;;5050163;28;20467;-59
2023/11/18 02:03:05;;;;;;;5.30;2.72;;;179.30;2252.80;;;;;;5050738;28;20045;-58
2023/11/18 02:05:33;;;;;;;4.72;2.40;;;179.30;2252.80;;;;;;5050313;28;20033;-58
2023/11/18 02:08:00;;;;;;;3.78;2.65;;;179.20;2252.80;;;;;;5049725;28;20029;-58
2023/11/18 02:10:27;;;;;;;4.43;3.05;;;179.20;2252.80;;;;;;5050972;28;20402;-58
2023/11/18 02:13:34;;;;;;;7.13;4.60;;;179.30;2252.80;;;;;;5050173;28;20107;-59
2023/11/18 02:16:04;;;;;;;8.65;2.88;;;179.30;2252.80;;;;;;5009672;28;20400;-59
2023/11/18 02:18:30;;;;;;;9.43;5.20;;;179.30;2252.80;;;;;;5007539;28;20083;-61
2023/11/18 02:20:59;;;;;;;5.63;3.47;;;179.30;2252.80;;;;;;5007392;28;20119;-60
2023/11/18 02:23:26;;;;;;;15.75;8.38;;;179.30;2252.80;;;;;;5007308;28;20118;-59
2023/11/18 02:25:52;;;;;;;13.10;7.30;;;179.30;2252.80;;;;;;5007277;28;20041;-58
2023/11/18 02:28:19;;;;;;;5.28;3.80;;;179.30;2252.80;;;;;;5007533;28;20030;-59
2023/11/18 02:30:45;;;;;;;6.60;3.95;;;179.30;2252.80;;;;;;5007281;28;20034;-59
2023/11/18 02:33:22;;;;;;;5.22;2.83;;;179.30;2252.80;;;;;;5013771;28;20499;-60
2023/11/18 02:35:57;;;;;;;6.95;3.38;;;179.30;2252.80;;;;;;5005375;28;20025;-59
2023/11/18 02:38:33;;;;;;;46.35;21.10;;;179.30;2252.80;;;;;;5005055;28;20037;-61
2023/11/18 02:41:05;;;;;;;15.35;7.47;;;179.40;2252.80;;;;;;5007134;28;20068;-60
2023/11/18 02:43:30;;;;;;;4.85;2.42;;;179.30;2252.80;;;;;;5007096;28;20028;-60
2023/11/18 02:45:57;;;;;;;5.10;2.70;;;179.30;2252.80;;;;;;5006822;28;20116;-61
2023/11/18 02:48:23;;;;;;;38.58;17.65;;;179.30;2252.80;;;;;;5007143;28;20084;-61
2023/11/18 02:50:49;;;;;;;9.43;5.55;;;179.40;2252.80;;;;;;5014815;28;20430;-60
2023/11/18 02:53:15;;;;;;;6.50;4.50;;;179.40;2252.80;;;;;;5048804;28;20059;-59
2023/11/18 02:55:41;;;;;;;11.15;6.28;;;179.40;2252.80;;;;;;5046252;28;20017;-60
2023/11/18 02:58:07;;;;;;;5.80;2.78;;;179.40;2252.80;;;;;;5057144;28;20040;-60
2023/11/18 03:00:34;;;;;;;5.63;2.92;;;179.30;2252.80;;;;;;5059338;28;20511;-60
2023/11/18 03:02:59;;;;;;;10.65;4.88;;;179.40;2252.80;;;;;;5059915;28;20047;-60
2023/11/18 03:05:26;;;;;;;8.68;4.05;;;179.40;2252.80;;;;;;5059473;28;20025;-60
2023/11/18 03:07:54;;;;;;;4.20;2.75;;;179.40;2252.80;;;;;;5055064;28;20025;-59
2023/11/18 03:10:21;;;;;;;6.47;3.92;;;179.40;2252.80;;;;;;5058574;28;20035;-60
2023/11/18 03:12:48;;;;;;;7.00;3.25;;;179.40;2252.80;;;;;;5059687;28;20031;-60
2023/11/18 03:15:16;;;;;;;4.57;2.88;;;179.40;2252.80;;;;;;5051944;28;20504;-62
2023/11/18 03:17:46;;;;;;;8.20;4.22;;;179.40;2252.80;;;;;;5049405;28;20032;-59
2023/11/18 03:20:16;;;;;;;6.20;3.35;;;179.30;2252.80;;;;;;5051593;28;20036;-59
2023/11/18 03:22:43;;;;;;;4.18;2.67;;;179.30;2252.80;;;;;;5052944;28;20163;-60
2023/11/18 03:25:10;;;;;;;6.55;3.60;;;179.40;2252.80;;;;;;5053335;28;20021;-60
2023/11/18 03:27:35;;;;;;;5.53;2.65;;;179.40;2252.80;;;;;;5052851;28;20041;-60
2023/11/18 03:30:01;;;;;;;4.47;3.40;;;179.40;2252.80;;;;;;5053255;28;20040;-60
2023/11/18 03:32:27;;;;;;;4.97;3.20;;;179.30;2252.80;;;;;;5053137;28;20051;-60
2023/11/18 03:34:52;;;;;;;4.25;2.90;;;179.40;2252.80;;;;;;5053292;28;20072;-60
2023/11/18 03:37:18;;;;;;;4.28;2.40;;;179.40;2252.80;;;;;;5053314;28;20040;-59
2023/11/18 03:39:45;;;;;;;6.82;3.30;;;179.30;2252.80;;;;;;5052878;28;20027;-61
2023/11/18 03:42:11;;;;;;;3.70;1.85;;;179.30;2252.80;;;;;;5052913;28;20035;-60
2023/11/18 03:44:37;;;;;;;4.63;2.17;;;179.30;2252.80;;;;;;5052800;28;20538;-60
2023/11/18 03:47:03;;;;;;;4.13;2.33;;;179.30;2252.80;;;;;;5052717;28;20083;-60
2023/11/18 03:49:29;;;;;;;2.92;1.73;;;179.30;2252.80;;;;;;5052988;28;20418;-60
2023/11/18 03:51:54;;;;;;;3.08;2.03;;;179.30;2252.80;;;;;;5052739;28;20036;-60
2023/11/18 03:54:20;;;;;;;4.10;2.10;;;179.20;2252.80;;;;;;5053806;28;20060;-60
2023/11/18 03:56:46;;;;;;;5.97;1.73;;;179.30;2252.80;;;;;;5053443;28;20055;-61
2023/11/18 03:59:12;;;;;;;2.85;1.80;;;179.30;2252.80;;;;;;5053922;28;20495;-61
2023/11/18 04:01:37;;;;;;;3.75;1.92;;;179.20;2252.80;;;;;;5054383;28;20066;-62
2023/11/18 04:04:04;;;;;;;3.85;2.03;;;154.50;2252.80;;;;;;5052879;28;20041;-60
2023/11/18 04:06:29;;;;;;;3.22;2.58;;;154.40;2252.80;;;;;;5052493;28;20036;-60
2023/11/18 04:08:55;;;;;;;3.78;1.98;;;154.40;2252.80;;;;;;5052651;28;20027;-60
2023/11/18 04:11:21;;;;;;;2.88;1.70;;;154.40;2252.80;;;;;;5052445;28;20044;-61
2023/11/18 04:13:47;;;;;;;5.25;2.50;;;154.40;2252.80;;;;;;5052284;28;20100;-62
2023/11/18 04:16:15;;;;;;;3.00;1.63;;;154.40;2252.80;;;;;;5052087;28;20025;-60
2023/11/18 04:18:45;;;;;;;2.70;1.50;;;154.40;2252.80;;;;;;5052360;28;20024;-60
2023/11/18 04:21:12;;;;;;;4.07;2.05;;;154.40;2252.80;;;;;;5052338;28;20036;-61
2023/11/18 04:23:39;;;;;;;3.53;1.90;;;154.40;2252.80;;;;;;5052107;28;20035;-61
2023/11/18 04:26:07;;;;;;;2.55;1.50;;;154.50;2252.80;;;;;;5052125;28;20049;-60
2023/11/18 04:28:36;;;;;;;3.25;2.05;;;154.40;2252.80;;;;;;5050516;28;20047;-62
2023/11/18 04:31:02;;;;;;;4.22;1.80;;;154.50;2252.80;;;;;;5048206;28;20116;-61
2023/11/18 04:33:29;;;;;;;29.35;21.65;;;154.50;2252.80;;;;;;5032973;28;20033;-61
2023/11/18 04:35:58;;;;;;;4.22;2.80;;;154.40;2252.80;;;;;;5050370;28;20013;-60
2023/11/18 04:38:25;;;;;;;2.80;1.75;;;154.50;2252.80;;;;;;5050464;28;20074;-61
2023/11/18 04:40:53;;;;;;;3.53;2.15;;;154.50;2252.80;;;;;;5050164;28;20056;-59
2023/11/18 04:43:20;;;;;;;3.58;2.30;;;154.50;2252.80;;;;;;5049897;28;20020;-61
2023/11/18 04:45:46;;;;;;;3.88;2.33;;;154.50;2252.80;;;;;;5049859;28;20494;-60
2023/11/18 04:48:13;;;;;;;4.05;2.13;;;154.40;2252.80;;;;;;5050246;28;20040;-60
2023/11/18 04:50:41;;;;;;;5.18;2.30;;;154.40;2252.80;;;;;;5050247;28;20021;-61
2023/11/18 04:53:10;;;;;;;3.70;2.28;;;154.40;2252.80;;;;;;5049902;28;20502;-62
2023/11/18 04:55:39;;;;;;;4.05;2.58;;;154.40;2252.80;;;;;;5049848;28;20120;-62
2023/11/18 04:58:06;;;;;;;4.05;2.38;;;154.30;2252.80;;;;;;5049496;28;20029;-59
2023/11/18 05:00:38;;;;;;;4.15;2.50;;;154.40;2252.80;;;;;;5049788;28;20487;-60
2023/11/18 05:03:05;;;;;;;4.55;2.33;;;154.40;2252.80;;;;;;5049639;28;20056;-60
2023/11/18 05:05:31;;;;;;;5.10;3.03;;;154.40;2252.80;;;;;;5049933;28;20112;-62
2023/11/18 05:07:57;;;;;;;4.30;2.50;;;154.30;2252.80;;;;;;5049638;28;20040;-62
2023/11/18 05:10:23;;;;;;;6.00;5.38;;;154.30;2252.80;;;;;;5049250;28;20021;-61
2023/11/18 05:12:55;;;;;;;3.85;2.58;;;154.40;2252.80;;;;;;5049809;28;20041;-61
2023/11/18 05:15:24;;;;;;;3.47;2.25;;;154.40;2252.80;;;;;;5049633;28;20024;-60
2023/11/18 05:17:51;;;;;;;3.30;2.45;;;154.40;2252.80;;;;;;5049657;28;20028;-60
2023/11/18 05:20:17;;;;;;;5.80;2.40;;;154.40;2252.80;;;;;;5049630;28;20029;-61
2023/11/18 05:22:43;;;;;;;4.38;2.70;;;154.30;2252.80;;;;;;5049093;28;20025;-61
2023/11/18 05:25:12;;;;;;;6.07;3.08;;;154.30;2252.80;;;;;;5049647;28;20039;-60
2023/11/18 05:27:41;;;;;;;3.22;2.40;;;154.20;2252.80;;;;;;5049167;28;20364;-61
2023/11/18 05:30:11;;;;;;;4.95;2.70;;;154.10;2252.80;;;;;;5049069;28;20033;-63
2023/11/18 05:32:37;;;;;;;4.53;2.70;;;154.10;2252.80;;;;;;5049277;28;20124;-61
2023/11/18 05:35:04;;;;;;;3.53;2.55;;;154.20;2252.80;;;;;;5049428;28;20530;-61
2023/11/18 05:37:37;;;;;;;5.18;2.60;;;154.10;2252.80;;;;;;5049151;28;20042;-61
2023/11/18 05:40:07;;;;;;;3.63;2.40;;;154.10;2252.80;;;;;;5049255;28;20039;-59
2023/11/18 05:42:37;;;;;;;3.97;2.60;;;154.10;2252.80;;;;;;5049018;28;20037;-61
2023/11/18 05:45:07;;;;;;;5.30;1.95;;;154.10;2252.80;;;;;;5048935;28;20029;-61
2023/11/18 05:47:34;;;;;;;8.55;2.40;;;154.00;2252.80;;;;;;5049105;28;20037;-61
2023/11/18 05:50:00;;;;;;;5.55;2.30;;;154.10;2252.80;;;;;;5048557;28;20033;-60
2023/11/18 05:52:26;;;;;;;6.68;4.95;;;154.10;2252.80;;;;;;5048877;28;20029;-62
2023/11/18 05:54:51;;;;;;;4.60;2.20;;;154.10;2252.80;;;;;;5048952;28;20033;-63
2023/11/18 05:57:18;;;;;;;7.97;2.00;;;154.20;2252.80;;;;;;5048628;28;20029;-61
2023/11/18 05:59:44;;;;;;;8.13;3.10;;;154.10;2252.80;;;;;;5048787;28;20025;-61
2023/11/18 06:02:17;;;;;;;5.03;3.30;;;154.20;2252.80;;;;;;5048049;28;20049;-62
2023/11/18 06:04:43;;;;;;;;;;;154.20;2252.80;;;;;;5049033;28;20059;-60
2023/11/18 06:07:09;;;;;;;5.10;3.15;;;154.30;2252.80;;;;;;5048681;28;19912;-63
2023/11/18 06:09:35;;;;;;;2.90;1.88;;;154.30;2252.80;;;;;;5048555;28;20036;-61
2023/11/18 06:12:02;;;;;;;5.35;3.10;;;154.30;2252.80;;;;;;5048745;28;20029;-60
2023/11/18 06:14:28;;;;;;;5.95;2.97;;;154.40;2252.80;;;;;;5048362;28;20017;-60
2023/11/18 06:16:53;;;;;;;4.15;2.83;;;154.40;2252.80;;;;;;5048039;28;20083;-60
2023/11/18 06:19:20;;;;;;;6.40;3.33;;;154.40;2252.80;;;;;;5048559;28;20315;-60
2023/11/18 06:21:46;;;;;;;6.90;4.00;;;154.30;2252.80;;;;;;5048341;28;20502;-60
2023/11/18 06:24:13;;;;;;;9.57;5.28;;;154.30;2252.80;;;;;;5048563;28;20036;-61
2023/11/18 06:26:39;;;;;;;5.75;3.17;;;154.50;2252.80;;;;;;5048553;28;20274;-61
2023/11/18 06:29:06;;;;;;;4.80;3.10;;;154.40;2252.80;;;;;;5047975;28;20079;-59
2023/11/18 06:31:32;;;;;;;9.73;4.43;;;154.50;2252.80;;;;;;5047367;28;20055;-60
2023/11/18 06:33:57;;;;;;;4.43;2.88;;;179.20;2252.80;;;;;;5048072;28;20472;-59
2023/11/18 06:36:26;;;;;;;6.45;3.83;;;154.50;2252.80;;;;;;5048090;28;20032;-61
2023/11/18 06:38:53;;;;;;;6.28;4.45;;;154.50;2252.80;;;;;;5048452;28;20029;-61
2023/11/18 06:41:22;;;;;;;6.65;3.60;;;154.50;2252.80;;;;;;5048099;28;20043;-59
2023/11/18 06:43:56;;;;;;;3.92;2.72;;;179.30;2252.80;;;;;;5047251;28;20483;-61
2023/11/18 06:46:34;;;;;;;4.25;2.67;;;179.30;2252.80;;;;;;5047928;28;20025;-61
2023/11/18 06:49:04;;;;;;;4.07;2.53;;;179.20;2252.80;;;;;;5047951;28;20086;-60
2023/11/18 06:51:34;;;;;;;4.97;3.00;;;179.30;2252.80;;;;;;5048412;28;20025;-60
2023/11/18 06:54:02;;;;;;;4.18;3.10;;;179.40;2252.80;;;;;;5047782;28;20032;-60
2023/11/18 06:56:28;;;;;;;4.32;2.63;;;179.40;2252.80;;;;;;5048197;28;20040;-59
2023/11/18 06:58:54;;;;;;;4.70;2.78;;;179.40;2252.80;;;;;;5047271;28;20037;-59
2023/11/18 07:01:20;;;;;;;5.68;3.45;;;179.50;2252.80;;;;;;5048560;28;20048;-60
2023/11/18 07:03:54;;;;;;;6.13;3.70;;;179.50;2252.80;;;;;;5049749;28;20052;-60
2023/11/18 07:06:23;;;;;;;8.65;4.95;;;179.60;2252.80;;;;;;5049318;28;20025;-60
2023/11/18 07:08:49;;;;;;;11.98;6.60;;;179.60;2252.80;;;;;;5050045;28;20028;-60
2023/11/18 07:11:16;;;;;;;17.95;11.70;;;179.70;2252.80;;;;;;5050642;28;20045;-60
2023/11/18 07:13:42;;;;;;;5.78;3.80;;;179.80;2252.80;;;;;;5050780;28;20078;-60
2023/11/18 07:16:09;;;;;;;12.40;9.55;;;179.90;2252.80;;;;;;5049500;28;20036;-60
2023/11/18 07:18:38;;;;;;;10.18;6.70;;;179.90;2252.80;;;;;;5048864;28;20448;-60
2023/11/18 07:21:07;;;;;;;8.38;4.65;;;180.00;2252.80;;;;;;5049341;28;20104;-60
2023/11/18 07:23:33;;;;;;;7.28;4.15;;;180.10;2252.80;;;;;;5049107;28;20549;-60
2023/11/18 07:26:00;;;;;;;5.53;4.47;;;204.80;2252.80;;;;;;5049426;28;20057;-59
2023/11/18 07:28:25;;;;;;;8.70;5.32;;;204.90;2252.80;;;;;;5049013;28;20510;-59
2023/11/18 07:30:53;;;;;;;3.95;2.90;;;205.00;2252.80;;;;;;5049138;28;20069;-59
2023/11/18 07:33:19;;;;;;;4.60;3.00;;;205.00;2252.80;;;;;;5048570;28;20041;-59
2023/11/18 07:35:50;;;;;;;3.80;2.63;;;205.50;2252.80;;;;;;5049002;28;20104;-59
2023/11/18 07:38:17;;;;;;;4.25;3.22;;;205.70;2252.80;;;;;;5049035;28;20044;-60
2023/11/18 07:40:45;;;;;;;11.75;9.98;;;231.00;2252.80;;;;;;5048798;28;20029;-62
2023/11/18 07:43:15;;;;;;;8.68;7.78;;;231.30;2252.80;;;;;;5049368;28;20021;-60
2023/11/18 07:45:42;;;;;;;9.57;7.50;;;256.60;2252.80;;;;;;5049120;28;20460;-60
2023/11/18 07:48:09;;;;;;;24.88;21.65;;;231.30;2252.80;;;;;;5049035;28;20044;-59
2023/11/18 07:50:36;;;;;;;5.75;4.45;;;231.00;2252.80;;;;;;5048351;28;20025;-60
2023/11/18 07:53:03;;;;;;;8.07;7.38;;;256.10;2252.80;;;;;;5048773;28;20021;-59
2023/11/18 07:55:29;;;;;;;4.82;3.42;;;282.00;2278.40;;;;;;5048612;28;20025;-60
2023/11/18 07:57:55;;;;;;;4.13;3.10;;;256.60;2252.80;;;;;;5030502;28;20480;-60
2023/11/18 08:00:23;;;;;;;13.93;12.63;;;282.10;2278.40;;;;;;5048888;28;20021;-60
2023/11/18 08:02:49;;;;;;;6.03;4.13;;;307.30;2227.20;;;;;;5049009;28;20135;-60
2023/11/18 08:05:15;;;;;;;9.35;6.85;;;282.00;2227.20;;;;;;5049166;28;20056;-60
2023/11/18 08:07:44;;;;;;;7.35;5.90;;;256.70;2252.80;;;;;;5051827;28;20051;-59
2023/11/18 08:10:18;;;;;;;19.92;14.00;;;256.30;2252.80;;;;;;5052546;28;20024;-60
2023/11/18 08:12:44;;;;;;;7.45;5.75;;;256.10;2252.80;;;;;;5052613;28;20104;-59
2023/11/18 08:15:10;;;;;;;10.65;6.90;;;307.20;2252.80;;;;;;5052299;28;20025;-59
2023/11/18 08:17:36;;;;;;;11.30;7.80;;;333.30;2124.80;;;;;;5051298;28;20051;-58
2023/11/18 08:20:13;;;;;;;28.30;25.75;;;307.90;2150.40;;;;;;5050142;28;20025;-60
2023/11/18 08:22:45;;;;;;;9.80;5.50;;;282.40;2201.60;;;;;;5051733;28;20029;-59
2023/11/18 08:25:12;;;;;;;6.20;5.38;;;282.00;2201.60;;;;;;5051346;28;20029;-57
2023/11/18 08:27:40;;;;;;;8.20;3.60;;;281.70;2227.20;;;;;;5052033;28;20103;-60
2023/11/18 08:30:11;;;;;;;4.38;3.28;;;256.70;2227.20;;;;;;5052027;28;20075;-59
2023/11/18 08:32:38;;;;;;;3.63;2.78;;;307.90;2124.80;;;;;;5034880;28;20056;-59
2023/11/18 08:35:07;;;;;;;15.73;13.75;;;307.90;2099.20;;;;;;5051697;28;20033;-60
2023/11/18 08:37:35;;;;;;;9.63;6.43;;;307.50;2124.80;;;;;;5051960;28;20079;-61
2023/11/18 08:40:06;;;;;;;5.35;3.92;;;281.90;2201.60;;;;;;5051950;28;20052;-58
2023/11/18 08:42:33;;;;;;;8.30;6.60;;;281.80;2201.60;;;;;;5051708;28;20108;-58
2023/11/18 08:45:00;;;;;;;12.30;10.68;;;281.70;2227.20;;;;;;5051664;28;20055;-60
2023/11/18 08:47:27;;;;;;;84.30;66.95;;;256.20;2252.80;;;;;;5051743;28;20041;-58
2023/11/18 08:49:55;;;;;;;22.90;18.33;;;256.20;2252.80;;;;;;5051162;28;20028;-64
2023/11/18 08:52:20;;;;;;;7.53;5.95;;;282.10;2227.20;;;;;;5051580;28;20074;-65
2023/11/18 08:57:48;;;;;;;7.43;6.68;;;256.90;2252.80;;;;;;5052228;28;20440;-64
2023/11/18 09:03:10;;;;;;;8.45;6.90;;;281.90;2227.20;;;;;;5049884;28;20091;-64
2023/11/18 09:05:49;;;;;;;10.35;8.27;;;282.40;2201.60;;;;;;5049618;28;20025;-64
2023/11/18 09:08:21;;;;;;;5.50;4.68;;;333.70;2048.00;;;;;;5048844;28;20407;-67
2023/11/18 09:10:48;;;;;;;6.93;4.10;;;359.30;1920.00;;;;;;5050729;28;20017;-64
2023/11/18 09:13:14;;;;;;;7.28;6.57;;;333.70;1996.80;;;;;;5050511;28;20029;-65
2023/11/18 09:15:40;;;;;;;5.75;5.07;;;358.90;1945.60;;;;;;5050657;28;20074;-66
2023/11/18 09:18:09;;;;;;;4.15;2.80;;;359.20;1894.40;;;;;;5047582;28;20104;-66
2023/11/18 09:20:35;;;;;;;5.20;4.18;;;333.50;1971.20;;;;;;5050833;28;20101;-65
2023/11/18 09:23:01;;;;;;;6.95;3.15;;;333.40;2022.40;;;;;;5050481;28;20419;-64
2023/11/18 09:25:27;;;;;;;4.40;3.45;;;333.10;2048.00;;;;;;5050332;28;20159;-65
2023/11/18 09:27:53;;;;;;;7.13;4.28;;;307.80;2048.00;;;;;;5050315;28;20032;-64
2023/11/18 09:30:19;;;;;;;5.40;3.58;;;308.00;2073.60;;;;;;5049737;28;20032;-64
2023/11/18 09:32:48;;;;;;;6.35;4.90;;;307.60;2073.60;;;;;;5050007;28;20391;-63
2023/11/18 09:35:14;;;;;;;6.47;4.38;;;282.10;2124.80;;;;;;5049915;28;20222;-67
2023/11/18 09:37:43;;;;;;;11.70;7.82;;;307.30;2099.20;;;;;;5049397;28;20431;-66
2023/11/18 09:40:14;;;;;;;6.43;4.25;;;307.90;2048.00;;;;;;5048127;28;20460;-64
2023/11/18 09:42:43;;;;;;;14.13;12.70;;;282.50;2073.60;;;;;;5050469;28;20075;-66
2023/11/18 09:45:14;;;;;;;4.97;3.08;;;282.10;2124.80;;;;;;5050191;28;20025;-64
2023/11/18 09:47:47;;;;;;;6.93;3.10;;;282.50;2099.20;;;;;;5050263;28;20585;-64
2023/11/18 09:50:15;;;;;;;;;;;282.20;2099.20;;;;;;5030983;28;20025;-65
2023/11/18 09:52:51;;;;;;;9.65;5.78;;;282.00;2124.80;;;;;;5047536;28;19912;-66
2023/11/18 09:55:40;;;;;;;8.00;4.20;;;281.80;2124.80;;;;;;5050359;28;20025;-65
2023/11/18 09:58:13;;;;;;;15.73;8.90;;;256.70;2124.80;;;;;;5050031;28;20053;-64
2023/11/18 10:00:43;;;;;;;8.43;4.13;;;256.90;2150.40;;;;;;5050232;28;20126;-64
2023/11/18 10:03:12;;;;;;;3.88;3.20;;;256.70;2150.40;;;;;;5050141;28;20135;-65
2023/11/18 10:05:40;;;;;;;4.05;2.67;;;256.50;2150.40;;;;;;5050107;28;20048;-65
2023/11/18 10:08:06;;;;;;;6.85;3.35;;;256.20;2176.00;;;;;;5048677;28;20045;-64
2023/11/18 10:10:38;;;;;;;9.60;7.85;;;231.20;2176.00;;;;;;5049002;28;20122;-65
2023/11/18 10:13:08;;;;;;;13.43;12.25;;;231.20;2201.60;;;;;;5049101;28;20033;-65
2023/11/18 10:15:34;;;;;;;4.10;2.85;;;256.00;2201.60;;;;;;5048821;28;20104;-65
2023/11/18 10:18:08;;;;;;;7.28;5.88;;;256.20;2176.00;;;;;;5050069;28;20136;-64
2023/11/18 10:20:41;;;;;;;4.10;3.22;;;256.40;2150.40;;;;;;5052974;28;20025;-65
2023/11/18 10:23:10;;;;;;;7.28;4.88;;;256.40;2150.40;;;;;;5050787;28;20450;-65
2023/11/18 10:25:49;;;;;;;6.10;3.50;;;256.30;2176.00;;;;;;5049714;28;20040;-65
2023/11/18 10:28:36;;;;;;;5.20;3.95;;;256.30;2150.40;;;;;;5051337;28;20033;-66
2023/11/18 10:31:09;;;;;;;5.90;4.55;;;256.50;2150.40;;;;;;5051178;28;20033;-65
2023/11/18 10:33:37;;;;;;;7.80;6.22;;;256.10;2176.00;;;;;;5051050;28;20052;-66
2023/11/18 10:36:04;;;;;;;5.35;4.05;;;256.10;2201.60;;;;;;5051186;28;20438;-64
2023/11/18 10:38:43;;;;;;;4.50;3.15;;;256.30;2176.00;;;;;;5050428;28;20514;-64
2023/11/18 10:41:09;;;;;;;6.50;4.72;;;256.50;2150.40;;;;;;5049610;28;20079;-64
2023/11/18 10:43:35;;;;;;;11.55;7.28;;;256.70;2176.00;;;;;;5049192;28;20487;-64
2023/11/18 10:46:11;;;;;;;15.15;10.75;;;256.80;2150.40;;;;;;5049587;28;20021;-64
2023/11/18 10:48:40;;;;;;;7.13;3.97;;;281.70;2176.00;;;;;;5048794;28;20044;-65
2023/11/18 10:51:11;;;;;;;5.55;3.17;;;256.90;2124.80;;;;;;5049058;28;20029;-64
2023/11/18 10:53:52;;;;;;;5.07;3.00;;;256.90;2073.60;;;;;;5049050;28;20032;-64
2023/11/18 10:56:32;;;;;;;5.00;2.40;;;256.90;2124.80;;;;;;5048153;28;20028;-64
2023/11/18 10:59:08;;;;;;;3.10;2.10;;;256.80;2099.20;;;;;;5048189;28;20415;-64
2023/11/18 11:01:42;;;;;;;6.93;4.82;;;256.50;2124.80;;;;;;5048952;28;20064;-65
2023/11/18 11:04:20;;;;;;;6.63;3.25;;;256.70;2099.20;;;;;;5049458;28;20454;-64
2023/11/18 11:06:53;;;;;;;4.85;2.67;;;256.70;2124.80;;;;;;5049480;28;20032;-64
2023/11/18 11:09:28;;;;;;;4.22;2.45;;;256.60;2099.20;;;;;;5049656;28;20480;-64
2023/11/18 11:12:03;;;;;;;4.82;3.83;;;256.50;2099.20;;;;;;5049249;28;20029;-65
2023/11/18 11:14:36;;;;;;;8.20;5.15;;;256.20;2150.40;;;;;;5049284;28;20029;-64
2023/11/18 11:17:11;;;;;;;4.47;3.03;;;256.20;2150.40;;;;;;5049456;28;20013;-63
2023/11/18 11:20:10;;;;;;;5.38;3.80;;;256.10;2150.40;;;;;;5048144;28;20079;-64
2023/11/18 11:22:49;;;;;;;7.55;3.65;;;256.10;2124.80;;;;;;5044374;28;20060;-65
2023/11/18 11:25:31;;;;;;;9.13;7.18;;;256.10;2150.40;;;;;;5048738;28;20064;-65
2023/11/18 11:28:16;;;;;;;18.00;11.48;;;256.00;2150.40;;;;;;5049019;28;20041;-65
2023/11/18 11:31:10;;;;;;;8.15;4.82;;;256.10;2150.40;;;;;;5049201;28;20491;-65
2023/11/18 11:33:42;;;;;;;3.70;2.80;;;231.30;2124.80;;;;;;5049011;28;20033;-65
2023/11/18 11:36:16;;;;;;;2.58;1.80;;;231.30;2124.80;;;;;;5047991;28;20036;-64
2023/11/18 11:38:46;;;;;;;4.78;3.00;;;231.20;2124.80;;;;;;5049111;28;20021;-64
2023/11/18 11:41:19;;;;;;;5.57;3.10;;;256.00;2099.20;;;;;;5049656;28;20040;-64
2023/11/18 11:43:49;;;;;;;5.43;4.47;;;256.20;2073.60;;;;;;5052908;28;20044;-65
2023/11/18 11:46:22;;;;;;;6.13;3.95;;;256.00;2073.60;;;;;;5051569;28;20564;-65
2023/11/18 11:48:53;;;;;;;4.82;4.15;;;256.00;2099.20;;;;;;5052150;28;20037;-64
2023/11/18 11:51:39;;;;;;;7.72;5.35;;;231.20;2099.20;;;;;;5053009;28;20021;-64
2023/11/18 11:54:16;;;;;;;11.45;6.75;;;231.20;2099.20;;;;;;5052570;28;20155;-64
2023/11/18 11:56:43;;;;;;;12.20;10.00;;;231.30;2124.80;;;;;;5068349;28;20437;-65
2023/11/18 11:59:12;;;;;;;14.75;10.65;;;256.10;2099.20;;;;;;5052687;28;20066;-65
2023/11/18 12:01:38;;;;;;;11.45;7.25;;;256.00;2099.20;;;;;;5051898;28;20029;-64
2023/11/18 12:04:10;;;;;;;19.58;11.10;;;256.10;2099.20;;;;;;5052091;28;20527;-65
2023/11/18 12:06:44;;;;;;;8.77;5.40;;;231.30;2099.20;;;;;;5034516;28;20029;-65
2023/11/18 12:09:10;;;;;;;14.65;8.52;;;256.10;2099.20;;;;;;5052698;28;20043;-66
2023/11/18 12:11:39;;;;;;;13.80;7.53;;;256.00;2124.80;;;;;;5052282;28;20032;-65
2023/11/18 12:14:12;;;;;;;6.18;4.10;;;231.30;2099.20;;;;;;5052171;28;20029;-65
2023/11/18 12:16:57;;;;;;;9.60;6.03;;;256.10;2099.20;;;;;;5052153;28;20119;-65
2023/11/18 12:19:58;;;;;;;7.50;3.85;;;256.20;2099.20;;;;;;5052424;28;20159;-65
2023/11/18 12:22:29;;;;;;;12.98;7.20;;;256.10;2099.20;;;;;;5051811;28;20131;-65
2023/11/18 12:24:58;;;;;;;13.05;6.90;;;256.10;2124.80;;;;;;5051836;28;20450;-65
2023/11/18 12:27:39;;;;;;;18.67;9.25;;;256.00;2099.20;;;;;;5051900;28;20164;-66
2023/11/18 12:30:29;;;;;;;5.85;4.82;;;231.20;2099.20;;;;;;5051994;28;20025;-64